Main page
METAR-TAF:

METAR-TAF

Airports :

Henderson Field

Midway, United States

latitude: 28-13N, longitude: 177-22W, elevation: 4 m

Current weather observation

The report was made 44 minutes ago, at 21:56 UTC
Wind 6 kt from the Northeast
Temperature 21°C
Humidity 64%
Pressure 1026 hPa
Visibility: 16.1 km

METAR: PMDY 162156Z AUTO 04006KT 10SM 21/14 A3030 RMK AO2 SLP259 T02060139 $

Time: 12:40 (22:40 UTC)

Forecast

The report was made 5 hours and 15 minutes ago, at 17:25 UTC
Forecast valid from 16 at 18 UTC to 17 at 18 UTC
Wind 10 kt from the Northeast
Visibility: 10 km
Scattered clouds at a height of 3000 ft

TAF: PMDY 161725Z 1618/1718 04010KT P6SM SCT030

Weather observations and forecasts of more than 4000 airports (METAR and TAF reports).

The available stations are represented by yellow and red dots on the map.

Hover mouse over dot to see the name of the station.

Then click to see weather observations and forecasts.

To change the map : click on the green buttons with a black cross to zoom in, on the green button with a dash to zoom out, or on the green arrows for adjacent maps.


METAR-TAF: